sensor_id;sensor_type;location;lat;lon;timestamp;P1;durP1;ratioP1;P2;durP2;ratioP2
53267;SDS011;39156;51.176;6.738;2022-12-07T00:01:36;49.17;;;45.92;;
53267;SDS011;39156;51.176;6.738;2022-12-07T00:04:04;52.28;;;48.38;;
53267;SDS011;39156;51.176;6.738;2022-12-07T00:09:06;51.28;;;47.33;;
53267;SDS011;39156;51.176;6.738;2022-12-07T00:11:36;54.60;;;50.83;;
53267;SDS011;39156;51.176;6.738;2022-12-07T00:14:03;52.00;;;48.58;;
53267;SDS011;39156;51.176;6.738;2022-12-07T00:16:33;52.35;;;48.75;;
53267;SDS011;39156;51.176;6.738;2022-12-07T00:18:59;51.42;;;48.03;;
53267;SDS011;39156;51.176;6.738;2022-12-07T00:21:27;52.60;;;49.08;;
53267;SDS011;39156;51.176;6.738;2022-12-07T00:23:56;52.53;;;48.97;;
53267;SDS011;39156;51.176;6.738;2022-12-07T00:26:23;52.13;;;48.43;;
53267;SDS011;39156;51.176;6.738;2022-12-07T00:28:53;53.28;;;49.58;;
53267;SDS011;39156;51.176;6.738;2022-12-07T00:31:23;53.63;;;50.03;;
53267;SDS011;39156;51.176;6.738;2022-12-07T00:33:51;51.20;;;47.88;;
53267;SDS011;39156;51.176;6.738;2022-12-07T00:36:19;52.45;;;49.05;;
53267;SDS011;39156;51.176;6.738;2022-12-07T00:38:47;50.28;;;46.88;;
53267;SDS011;39156;51.176;6.738;2022-12-07T00:41:14;49.95;;;46.47;;
53267;SDS011;39156;51.176;6.738;2022-12-07T00:43:45;50.47;;;46.90;;
53267;SDS011;39156;51.176;6.738;2022-12-07T00:46:12;51.50;;;48.17;;
53267;SDS011;39156;51.176;6.738;2022-12-07T00:48:39;52.42;;;49.05;;
53267;SDS011;39156;51.176;6.738;2022-12-07T00:51:05;52.85;;;49.28;;
53267;SDS011;39156;51.176;6.738;2022-12-07T00:53:36;53.10;;;49.55;;
53267;SDS011;39156;51.176;6.738;2022-12-07T00:56:09;49.55;;;46.25;;
53267;SDS011;39156;51.176;6.738;2022-12-07T00:58:38;51.20;;;47.60;;
53267;SDS011;39156;51.176;6.738;2022-12-07T01:01:04;54.28;;;50.67;;
53267;SDS011;39156;51.176;6.738;2022-12-07T01:03:32;50.75;;;47.28;;
53267;SDS011;39156;51.176;6.738;2022-12-07T01:05:58;50.10;;;46.78;;
53267;SDS011;39156;51.176;6.738;2022-12-07T01:08:25;51.95;;;48.40;;
53267;SDS011;39156;51.176;6.738;2022-12-07T01:11:02;53.22;;;49.83;;
53267;SDS011;39156;51.176;6.738;2022-12-07T01:13:32;51.60;;;48.22;;
53267;SDS011;39156;51.176;6.738;2022-12-07T01:18:27;50.00;;;46.55;;
53267;SDS011;39156;51.176;6.738;2022-12-07T01:23:32;51.28;;;47.97;;
53267;SDS011;39156;51.176;6.738;2022-12-07T01:26:01;50.90;;;47.63;;
53267;SDS011;39156;51.176;6.738;2022-12-07T01:28:32;50.83;;;47.53;;
53267;SDS011;39156;51.176;6.738;2022-12-07T01:31:05;53.03;;;49.22;;
53267;SDS011;39156;51.176;6.738;2022-12-07T01:36:07;52.17;;;48.38;;
53267;SDS011;39156;51.176;6.738;2022-12-07T01:38:57;54.10;;;50.00;;
53267;SDS011;39156;51.176;6.738;2022-12-07T01:41:27;51.00;;;47.60;;
53267;SDS011;39156;51.176;6.738;2022-12-07T01:44:12;55.72;;;51.72;;
53267;SDS011;39156;51.176;6.738;2022-12-07T01:46:55;51.05;;;47.63;;
53267;SDS011;39156;51.176;6.738;2022-12-07T01:49:28;53.25;;;49.75;;
53267;SDS011;39156;51.176;6.738;2022-12-07T01:52:01;53.22;;;49.63;;
53267;SDS011;39156;51.176;6.738;2022-12-07T01:54:40;52.58;;;49.05;;
53267;SDS011;39156;51.176;6.738;2022-12-07T01:57:07;54.03;;;50.33;;
53267;SDS011;39156;51.176;6.738;2022-12-07T01:59:34;55.58;;;51.83;;
53267;SDS011;39156;51.176;6.738;2022-12-07T02:02:00;54.33;;;50.70;;
53267;SDS011;39156;51.176;6.738;2022-12-07T02:04:29;55.33;;;51.50;;
53267;SDS011;39156;51.176;6.738;2022-12-07T02:06:55;53.30;;;49.50;;
53267;SDS011;39156;51.176;6.738;2022-12-07T02:09:22;51.97;;;48.53;;
53267;SDS011;39156;51.176;6.738;2022-12-07T02:11:48;53.30;;;49.72;;
53267;SDS011;39156;51.176;6.738;2022-12-07T02:14:14;52.00;;;48.45;;
53267;SDS011;39156;51.176;6.738;2022-12-07T02:25:26;51.70;;;48.30;;
53267;SDS011;39156;51.176;6.738;2022-12-07T02:28:19;53.08;;;49.40;;
53267;SDS011;39156;51.176;6.738;2022-12-07T02:30:58;52.90;;;49.20;;
53267;SDS011;39156;51.176;6.738;2022-12-07T02:33:37;53.97;;;50.22;;
53267;SDS011;39156;51.176;6.738;2022-12-07T02:36:21;54.40;;;50.70;;
53267;SDS011;39156;51.176;6.738;2022-12-07T02:38:58;53.00;;;49.30;;
53267;SDS011;39156;51.176;6.738;2022-12-07T02:41:36;52.20;;;48.72;;
53267;SDS011;39156;51.176;6.738;2022-12-07T02:44:14;51.75;;;48.40;;
53267;SDS011;39156;51.176;6.738;2022-12-07T02:47:05;55.35;;;51.60;;
53267;SDS011;39156;51.176;6.738;2022-12-07T02:49:35;55.85;;;51.90;;
53267;SDS011;39156;51.176;6.738;2022-12-07T02:52:03;52.47;;;48.97;;
53267;SDS011;39156;51.176;6.738;2022-12-07T02:54:29;53.60;;;50.17;;
53267;SDS011;39156;51.176;6.738;2022-12-07T03:05:23;51.13;;;47.90;;
53267;SDS011;39156;51.176;6.738;2022-12-07T03:08:30;51.45;;;48.15;;
53267;SDS011;39156;51.176;6.738;2022-12-07T03:11:13;52.53;;;49.20;;
53267;SDS011;39156;51.176;6.738;2022-12-07T03:14:08;52.13;;;48.70;;
53267;SDS011;39156;51.176;6.738;2022-12-07T03:16:46;50.22;;;47.00;;
53267;SDS011;39156;51.176;6.738;2022-12-07T03:19:20;51.30;;;47.80;;
53267;SDS011;39156;51.176;6.738;2022-12-07T03:22:03;52.80;;;49.30;;
53267;SDS011;39156;51.176;6.738;2022-12-07T03:24:35;50.85;;;47.47;;
53267;SDS011;39156;51.176;6.738;2022-12-07T03:27:13;51.65;;;48.35;;
53267;SDS011;39156;51.176;6.738;2022-12-07T03:29:56;48.88;;;45.50;;
53267;SDS011;39156;51.176;6.738;2022-12-07T03:32:42;52.45;;;49.05;;
53267;SDS011;39156;51.176;6.738;2022-12-07T03:38:14;49.63;;;46.42;;
53267;SDS011;39156;51.176;6.738;2022-12-07T03:40:50;49.47;;;46.28;;
53267;SDS011;39156;51.176;6.738;2022-12-07T03:43:28;49.40;;;46.30;;
53267;SDS011;39156;51.176;6.738;2022-12-07T03:49:04;50.67;;;47.38;;
53267;SDS011;39156;51.176;6.738;2022-12-07T03:51:45;49.60;;;46.38;;
53267;SDS011;39156;51.176;6.738;2022-12-07T03:54:37;51.28;;;48.08;;
53267;SDS011;39156;51.176;6.738;2022-12-07T03:57:26;50.55;;;47.20;;
53267;SDS011;39156;51.176;6.738;2022-12-07T03:59:54;50.30;;;46.88;;
53267;SDS011;39156;51.176;6.738;2022-12-07T04:02:21;51.33;;;47.83;;
53267;SDS011;39156;51.176;6.738;2022-12-07T04:04:49;48.83;;;45.63;;
53267;SDS011;39156;51.176;6.738;2022-12-07T04:07:15;49.22;;;45.92;;
53267;SDS011;39156;51.176;6.738;2022-12-07T04:09:41;51.22;;;48.10;;
53267;SDS011;39156;51.176;6.738;2022-12-07T04:12:06;49.20;;;45.88;;
53267;SDS011;39156;51.176;6.738;2022-12-07T04:14:32;49.65;;;46.45;;
53267;SDS011;39156;51.176;6.738;2022-12-07T04:16:58;48.92;;;45.63;;
53267;SDS011;39156;51.176;6.738;2022-12-07T04:19:25;49.30;;;46.13;;
53267;SDS011;39156;51.176;6.738;2022-12-07T04:21:54;49.60;;;46.58;;
53267;SDS011;39156;51.176;6.738;2022-12-07T04:24:21;49.85;;;46.78;;
53267;SDS011;39156;51.176;6.738;2022-12-07T04:26:47;47.47;;;44.35;;
53267;SDS011;39156;51.176;6.738;2022-12-07T04:29:13;49.22;;;45.95;;
53267;SDS011;39156;51.176;6.738;2022-12-07T04:31:41;50.63;;;47.53;;
53267;SDS011;39156;51.176;6.738;2022-12-07T04:34:07;47.25;;;44.35;;
53267;SDS011;39156;51.176;6.738;2022-12-07T04:36:33;51.40;;;48.20;;
53267;SDS011;39156;51.176;6.738;2022-12-07T04:38:59;50.45;;;47.15;;
53267;SDS011;39156;51.176;6.738;2022-12-07T04:41:26;48.65;;;45.33;;
53267;SDS011;39156;51.176;6.738;2022-12-07T04:44:00;47.75;;;44.63;;
53267;SDS011;39156;51.176;6.738;2022-12-07T04:46:28;48.88;;;45.72;;
53267;SDS011;39156;51.176;6.738;2022-12-07T04:48:55;47.60;;;44.60;;
53267;SDS011;39156;51.176;6.738;2022-12-07T04:51:23;47.95;;;44.70;;
53267;SDS011;39156;51.176;6.738;2022-12-07T04:53:52;48.83;;;45.88;;
53267;SDS011;39156;51.176;6.738;2022-12-07T04:56:19;47.85;;;44.75;;
53267;SDS011;39156;51.176;6.738;2022-12-07T04:58:46;46.60;;;43.60;;
53267;SDS011;39156;51.176;6.738;2022-12-07T05:03:39;46.55;;;43.65;;
53267;SDS011;39156;51.176;6.738;2022-12-07T05:06:05;46.30;;;43.50;;
53267;SDS011;39156;51.176;6.738;2022-12-07T05:08:32;48.22;;;44.97;;
53267;SDS011;39156;51.176;6.738;2022-12-07T05:10:59;46.95;;;43.97;;
53267;SDS011;39156;51.176;6.738;2022-12-07T05:13:25;47.78;;;44.88;;
53267;SDS011;39156;51.176;6.738;2022-12-07T05:15:51;46.38;;;43.58;;
53267;SDS011;39156;51.176;6.738;2022-12-07T05:18:17;46.15;;;43.38;;
53267;SDS011;39156;51.176;6.738;2022-12-07T05:20:43;47.60;;;44.47;;
53267;SDS011;39156;51.176;6.738;2022-12-07T05:23:10;45.53;;;42.67;;
53267;SDS011;39156;51.176;6.738;2022-12-07T05:25:36;47.80;;;44.88;;
53267;SDS011;39156;51.176;6.738;2022-12-07T05:28:02;46.53;;;43.63;;
53267;SDS011;39156;51.176;6.738;2022-12-07T05:30:29;47.20;;;44.20;;
53267;SDS011;39156;51.176;6.738;2022-12-07T05:32:54;47.25;;;44.40;;
53267;SDS011;39156;51.176;6.738;2022-12-07T05:35:20;47.10;;;44.30;;
53267;SDS011;39156;51.176;6.738;2022-12-07T05:37:46;48.15;;;45.35;;
53267;SDS011;39156;51.176;6.738;2022-12-07T05:40:13;47.65;;;44.55;;
53267;SDS011;39156;51.176;6.738;2022-12-07T05:42:40;49.28;;;46.20;;
53267;SDS011;39156;51.176;6.738;2022-12-07T05:45:06;47.25;;;44.45;;
53267;SDS011;39156;51.176;6.738;2022-12-07T05:47:33;48.10;;;45.03;;
53267;SDS011;39156;51.176;6.738;2022-12-07T05:49:59;46.10;;;43.20;;
53267;SDS011;39156;51.176;6.738;2022-12-07T05:52:25;45.67;;;42.78;;
53267;SDS011;39156;51.176;6.738;2022-12-07T05:54:52;49.60;;;46.20;;
53267;SDS011;39156;51.176;6.738;2022-12-07T05:57:17;45.83;;;43.03;;
53267;SDS011;39156;51.176;6.738;2022-12-07T05:59:44;46.72;;;43.70;;
53267;SDS011;39156;51.176;6.738;2022-12-07T06:02:10;46.53;;;43.45;;
53267;SDS011;39156;51.176;6.738;2022-12-07T06:04:39;46.50;;;43.53;;
53267;SDS011;39156;51.176;6.738;2022-12-07T06:07:11;46.70;;;43.70;;
53267;SDS011;39156;51.176;6.738;2022-12-07T06:09:39;46.10;;;43.20;;
53267;SDS011;39156;51.176;6.738;2022-12-07T06:12:05;46.35;;;43.45;;
53267;SDS011;39156;51.176;6.738;2022-12-07T06:14:52;46.60;;;43.80;;
53267;SDS011;39156;51.176;6.738;2022-12-07T06:17:18;47.80;;;44.83;;
53267;SDS011;39156;51.176;6.738;2022-12-07T06:19:43;46.15;;;43.35;;
53267;SDS011;39156;51.176;6.738;2022-12-07T06:22:09;45.10;;;42.28;;
53267;SDS011;39156;51.176;6.738;2022-12-07T06:24:36;49.22;;;46.20;;
53267;SDS011;39156;51.176;6.738;2022-12-07T06:27:03;45.33;;;42.33;;
53267;SDS011;39156;51.176;6.738;2022-12-07T06:29:29;47.05;;;44.10;;
53267;SDS011;39156;51.176;6.738;2022-12-07T06:31:55;48.65;;;45.42;;
53267;SDS011;39156;51.176;6.738;2022-12-07T06:34:21;45.53;;;42.72;;
53267;SDS011;39156;51.176;6.738;2022-12-07T06:39:20;45.10;;;42.15;;
53267;SDS011;39156;51.176;6.738;2022-12-07T06:41:51;48.25;;;45.05;;
53267;SDS011;39156;51.176;6.738;2022-12-07T06:44:17;47.90;;;44.90;;
53267;SDS011;39156;51.176;6.738;2022-12-07T06:46:44;47.60;;;44.67;;
53267;SDS011;39156;51.176;6.738;2022-12-07T06:49:09;46.58;;;43.65;;
53267;SDS011;39156;51.176;6.738;2022-12-07T06:51:35;47.13;;;44.10;;
53267;SDS011;39156;51.176;6.738;2022-12-07T06:54:02;45.85;;;42.95;;
53267;SDS011;39156;51.176;6.738;2022-12-07T06:58:54;44.63;;;41.83;;
53267;SDS011;39156;51.176;6.738;2022-12-07T07:01:20;46.25;;;43.55;;
53267;SDS011;39156;51.176;6.738;2022-12-07T07:03:46;44.95;;;42.15;;
53267;SDS011;39156;51.176;6.738;2022-12-07T07:06:12;46.23;;;43.40;;
53267;SDS011;39156;51.176;6.738;2022-12-07T07:08:39;45.80;;;42.97;;
53267;SDS011;39156;51.176;6.738;2022-12-07T07:11:05;47.03;;;44.03;;
53267;SDS011;39156;51.176;6.738;2022-12-07T07:13:32;45.88;;;42.95;;
53267;SDS011;39156;51.176;6.738;2022-12-07T07:15:58;46.42;;;43.63;;
53267;SDS011;39156;51.176;6.738;2022-12-07T07:18:24;46.28;;;43.47;;
53267;SDS011;39156;51.176;6.738;2022-12-07T07:20:51;46.43;;;43.63;;
53267;SDS011;39156;51.176;6.738;2022-12-07T07:23:17;47.65;;;44.75;;
53267;SDS011;39156;51.176;6.738;2022-12-07T07:25:44;45.75;;;42.88;;
53267;SDS011;39156;51.176;6.738;2022-12-07T07:28:10;46.40;;;43.53;;
53267;SDS011;39156;51.176;6.738;2022-12-07T07:30:36;43.90;;;41.17;;
53267;SDS011;39156;51.176;6.738;2022-12-07T07:33:04;45.35;;;42.67;;
53267;SDS011;39156;51.176;6.738;2022-12-07T07:35:31;44.72;;;42.13;;
53267;SDS011;39156;51.176;6.738;2022-12-07T07:37:58;44.78;;;41.90;;
53267;SDS011;39156;51.176;6.738;2022-12-07T07:40:24;45.13;;;42.33;;
53267;SDS011;39156;51.176;6.738;2022-12-07T07:42:52;46.83;;;44.03;;
53267;SDS011;39156;51.176;6.738;2022-12-07T07:45:19;46.78;;;43.22;;
53267;SDS011;39156;51.176;6.738;2022-12-07T07:47:46;45.13;;;42.30;;
53267;SDS011;39156;51.176;6.738;2022-12-07T07:50:12;44.92;;;42.03;;
53267;SDS011;39156;51.176;6.738;2022-12-07T07:52:39;44.00;;;41.28;;
53267;SDS011;39156;51.176;6.738;2022-12-07T07:55:05;43.83;;;41.33;;
53267;SDS011;39156;51.176;6.738;2022-12-07T07:57:33;44.28;;;41.38;;
53267;SDS011;39156;51.176;6.738;2022-12-07T08:00:07;43.40;;;40.85;;
53267;SDS011;39156;51.176;6.738;2022-12-07T08:02:38;43.75;;;41.15;;
53267;SDS011;39156;51.176;6.738;2022-12-07T08:05:04;46.57;;;43.77;;
53267;SDS011;39156;51.176;6.738;2022-12-07T08:07:30;44.55;;;41.72;;
53267;SDS011;39156;51.176;6.738;2022-12-07T08:09:56;46.58;;;43.28;;
53267;SDS011;39156;51.176;6.738;2022-12-07T08:12:22;46.42;;;43.53;;
53267;SDS011;39156;51.176;6.738;2022-12-07T08:14:47;46.05;;;43.35;;
53267;SDS011;39156;51.176;6.738;2022-12-07T08:17:13;44.97;;;42.35;;
53267;SDS011;39156;51.176;6.738;2022-12-07T08:19:39;45.90;;;42.63;;
53267;SDS011;39156;51.176;6.738;2022-12-07T08:22:04;46.05;;;43.15;;
53267;SDS011;39156;51.176;6.738;2022-12-07T08:24:32;47.13;;;44.08;;
53267;SDS011;39156;51.176;6.738;2022-12-07T08:26:59;47.70;;;44.95;;
53267;SDS011;39156;51.176;6.738;2022-12-07T08:29:25;45.00;;;42.22;;
53267;SDS011;39156;51.176;6.738;2022-12-07T08:31:50;46.70;;;43.92;;
53267;SDS011;39156;51.176;6.738;2022-12-07T08:34:16;47.17;;;44.08;;
53267;SDS011;39156;51.176;6.738;2022-12-07T08:36:42;43.72;;;41.10;;
53267;SDS011;39156;51.176;6.738;2022-12-07T08:39:07;44.95;;;41.97;;
53267;SDS011;39156;51.176;6.738;2022-12-07T08:41:33;44.95;;;42.05;;
53267;SDS011;39156;51.176;6.738;2022-12-07T08:43:59;44.45;;;41.70;;
53267;SDS011;39156;51.176;6.738;2022-12-07T08:46:35;44.03;;;41.35;;
53267;SDS011;39156;51.176;6.738;2022-12-07T08:51:39;45.15;;;42.35;;
53267;SDS011;39156;51.176;6.738;2022-12-07T08:54:07;46.05;;;43.25;;
53267;SDS011;39156;51.176;6.738;2022-12-07T08:56:36;44.90;;;42.00;;
53267;SDS011;39156;51.176;6.738;2022-12-07T08:59:02;45.72;;;42.92;;
53267;SDS011;39156;51.176;6.738;2022-12-07T09:01:29;50.22;;;47.20;;
53267;SDS011;39156;51.176;6.738;2022-12-07T09:03:54;45.25;;;42.35;;
53267;SDS011;39156;51.176;6.738;2022-12-07T09:06:20;45.50;;;42.50;;
53267;SDS011;39156;51.176;6.738;2022-12-07T09:08:47;46.67;;;43.63;;
53267;SDS011;39156;51.176;6.738;2022-12-07T09:11:16;45.30;;;42.08;;
53267;SDS011;39156;51.176;6.738;2022-12-07T09:13:42;45.83;;;42.92;;
53267;SDS011;39156;51.176;6.738;2022-12-07T09:16:07;46.20;;;43.25;;
53267;SDS011;39156;51.176;6.738;2022-12-07T09:18:33;46.30;;;43.20;;
53267;SDS011;39156;51.176;6.738;2022-12-07T09:20:59;44.72;;;42.05;;
53267;SDS011;39156;51.176;6.738;2022-12-07T09:23:24;43.15;;;40.30;;
53267;SDS011;39156;51.176;6.738;2022-12-07T09:25:50;45.10;;;42.38;;
53267;SDS011;39156;51.176;6.738;2022-12-07T09:28:16;42.00;;;39.50;;
53267;SDS011;39156;51.176;6.738;2022-12-07T09:30:46;46.53;;;43.47;;
53267;SDS011;39156;51.176;6.738;2022-12-07T09:33:13;45.33;;;42.05;;
53267;SDS011;39156;51.176;6.738;2022-12-07T09:35:43;46.95;;;43.90;;
53267;SDS011;39156;51.176;6.738;2022-12-07T09:38:14;46.20;;;42.85;;
53267;SDS011;39156;51.176;6.738;2022-12-07T09:40:40;44.55;;;41.55;;
53267;SDS011;39156;51.176;6.738;2022-12-07T09:43:12;45.42;;;42.63;;
53267;SDS011;39156;51.176;6.738;2022-12-07T09:45:40;47.60;;;44.70;;
53267;SDS011;39156;51.176;6.738;2022-12-07T09:48:13;47.20;;;44.20;;
53267;SDS011;39156;51.176;6.738;2022-12-07T09:50:44;45.15;;;42.42;;
53267;SDS011;39156;51.176;6.738;2022-12-07T09:58:34;43.90;;;41.10;;
53267;SDS011;39156;51.176;6.738;2022-12-07T10:01:05;44.20;;;41.40;;
53267;SDS011;39156;51.176;6.738;2022-12-07T10:03:37;44.15;;;41.20;;
53267;SDS011;39156;51.176;6.738;2022-12-07T10:06:09;44.53;;;41.63;;
53267;SDS011;39156;51.176;6.738;2022-12-07T10:08:37;46.75;;;43.65;;
53267;SDS011;39156;51.176;6.738;2022-12-07T10:11:03;47.40;;;44.28;;
53267;SDS011;39156;51.176;6.738;2022-12-07T10:13:36;45.13;;;42.33;;
53267;SDS011;39156;51.176;6.738;2022-12-07T10:16:04;45.03;;;42.13;;
53267;SDS011;39156;51.176;6.738;2022-12-07T10:18:36;46.17;;;43.28;;
53267;SDS011;39156;51.176;6.738;2022-12-07T10:21:20;45.92;;;43.00;;
53267;SDS011;39156;51.176;6.738;2022-12-07T10:26:37;44.35;;;41.53;;
53267;SDS011;39156;51.176;6.738;2022-12-07T10:32:04;49.08;;;45.85;;
53267;SDS011;39156;51.176;6.738;2022-12-07T10:34:52;47.28;;;44.33;;
53267;SDS011;39156;51.176;6.738;2022-12-07T10:37:50;43.28;;;40.58;;
53267;SDS011;39156;51.176;6.738;2022-12-07T10:43:15;46.35;;;43.45;;
53267;SDS011;39156;51.176;6.738;2022-12-07T10:45:56;44.83;;;41.92;;
53267;SDS011;39156;51.176;6.738;2022-12-07T10:49:05;43.70;;;41.00;;
53267;SDS011;39156;51.176;6.738;2022-12-07T10:57:27;44.90;;;41.88;;
53267;SDS011;39156;51.176;6.738;2022-12-07T11:06:48;44.45;;;41.53;;
53267;SDS011;39156;51.176;6.738;2022-12-07T11:09:46;43.65;;;40.88;;
53267;SDS011;39156;51.176;6.738;2022-12-07T11:18:43;42.53;;;39.63;;
53267;SDS011;39156;51.176;6.738;2022-12-07T11:21:30;42.88;;;40.22;;
53267;SDS011;39156;51.176;6.738;2022-12-07T11:24:26;43.33;;;40.35;;
53267;SDS011;39156;51.176;6.738;2022-12-07T11:30:18;44.15;;;41.33;;
53267;SDS011;39156;51.176;6.738;2022-12-07T11:35:44;42.92;;;39.92;;
53267;SDS011;39156;51.176;6.738;2022-12-07T11:38:49;43.38;;;40.58;;
53267;SDS011;39156;51.176;6.738;2022-12-07T11:41:32;45.38;;;42.58;;
53267;SDS011;39156;51.176;6.738;2022-12-07T11:44:06;45.40;;;42.60;;
53267;SDS011;39156;51.176;6.738;2022-12-07T11:46:58;45.38;;;42.58;;
53267;SDS011;39156;51.176;6.738;2022-12-07T11:49:51;41.80;;;39.22;;
53267;SDS011;39156;51.176;6.738;2022-12-07T12:01:21;45.20;;;42.22;;
53267;SDS011;39156;51.176;6.738;2022-12-07T12:03:57;45.70;;;42.45;;
53267;SDS011;39156;51.176;6.738;2022-12-07T12:06:31;47.75;;;44.63;;
53267;SDS011;39156;51.176;6.738;2022-12-07T12:11:42;43.72;;;40.53;;
53267;SDS011;39156;51.176;6.738;2022-12-07T12:14:37;45.75;;;42.90;;
53267;SDS011;39156;51.176;6.738;2022-12-07T12:28:19;43.85;;;41.20;;
53267;SDS011;39156;51.176;6.738;2022-12-07T12:33:49;42.58;;;39.95;;
53267;SDS011;39156;51.176;6.738;2022-12-07T12:47:03;40.25;;;37.75;;
53267;SDS011;39156;51.176;6.738;2022-12-07T12:50:21;42.53;;;39.53;;
53267;SDS011;39156;51.176;6.738;2022-12-07T12:52:55;39.53;;;37.08;;
53267;SDS011;39156;51.176;6.738;2022-12-07T12:55:48;40.92;;;38.33;;
53267;SDS011;39156;51.176;6.738;2022-12-07T13:00:43;38.08;;;35.85;;
53267;SDS011;39156;51.176;6.738;2022-12-07T13:03:23;40.65;;;38.08;;
53267;SDS011;39156;51.176;6.738;2022-12-07T13:08:55;41.78;;;39.03;;
53267;SDS011;39156;51.176;6.738;2022-12-07T13:11:34;42.85;;;40.17;;
53267;SDS011;39156;51.176;6.738;2022-12-07T13:17:09;40.45;;;37.88;;
53267;SDS011;39156;51.176;6.738;2022-12-07T13:24:59;40.13;;;37.72;;
53267;SDS011;39156;51.176;6.738;2022-12-07T13:27:55;41.58;;;38.88;;
53267;SDS011;39156;51.176;6.738;2022-12-07T13:33:51;41.78;;;39.15;;
53267;SDS011;39156;51.176;6.738;2022-12-07T13:36:19;40.15;;;37.75;;
53267;SDS011;39156;51.176;6.738;2022-12-07T13:39:00;39.50;;;37.10;;
53267;SDS011;39156;51.176;6.738;2022-12-07T13:41:43;44.15;;;41.25;;
53267;SDS011;39156;51.176;6.738;2022-12-07T13:44:10;39.00;;;36.63;;
53267;SDS011;39156;51.176;6.738;2022-12-07T13:49:38;42.17;;;39.67;;
53267;SDS011;39156;51.176;6.738;2022-12-07T13:54:56;41.67;;;39.17;;
53267;SDS011;39156;51.176;6.738;2022-12-07T13:57:27;41.25;;;38.67;;
53267;SDS011;39156;51.176;6.738;2022-12-07T13:59:55;43.35;;;40.60;;
53267;SDS011;39156;51.176;6.738;2022-12-07T14:02:28;42.85;;;40.25;;
53267;SDS011;39156;51.176;6.738;2022-12-07T14:06:02;43.25;;;40.45;;
53267;SDS011;39156;51.176;6.738;2022-12-07T14:08:21;40.97;;;38.45;;
53267;SDS011;39156;51.176;6.738;2022-12-07T14:16:05;43.03;;;40.42;;
53267;SDS011;39156;51.176;6.738;2022-12-07T14:18:57;42.58;;;39.35;;
53267;SDS011;39156;51.176;6.738;2022-12-07T14:21:28;42.92;;;39.97;;
53267;SDS011;39156;51.176;6.738;2022-12-07T14:24:16;40.47;;;37.78;;
53267;SDS011;39156;51.176;6.738;2022-12-07T14:26:44;42.88;;;40.40;;
53267;SDS011;39156;51.176;6.738;2022-12-07T14:29:29;42.58;;;39.95;;
53267;SDS011;39156;51.176;6.738;2022-12-07T14:31:58;41.65;;;39.08;;
53267;SDS011;39156;51.176;6.738;2022-12-07T14:34:40;43.97;;;41.28;;
53267;SDS011;39156;51.176;6.738;2022-12-07T14:37:07;44.53;;;41.60;;
53267;SDS011;39156;51.176;6.738;2022-12-07T14:39:34;41.45;;;39.13;;
53267;SDS011;39156;51.176;6.738;2022-12-07T14:42:00;41.60;;;38.78;;
53267;SDS011;39156;51.176;6.738;2022-12-07T14:44:25;44.10;;;41.13;;
53267;SDS011;39156;51.176;6.738;2022-12-07T14:46:51;41.28;;;38.60;;
53267;SDS011;39156;51.176;6.738;2022-12-07T14:49:18;41.97;;;39.47;;
53267;SDS011;39156;51.176;6.738;2022-12-07T14:51:44;40.72;;;37.78;;
53267;SDS011;39156;51.176;6.738;2022-12-07T14:54:19;40.70;;;37.95;;
53267;SDS011;39156;51.176;6.738;2022-12-07T14:56:45;41.78;;;39.40;;
53267;SDS011;39156;51.176;6.738;2022-12-07T14:59:16;41.80;;;39.15;;
53267;SDS011;39156;51.176;6.738;2022-12-07T15:01:43;41.35;;;38.80;;
53267;SDS011;39156;51.176;6.738;2022-12-07T15:04:09;40.20;;;37.60;;
53267;SDS011;39156;51.176;6.738;2022-12-07T15:06:35;41.67;;;39.15;;
53267;SDS011;39156;51.176;6.738;2022-12-07T15:09:01;41.65;;;39.08;;
53267;SDS011;39156;51.176;6.738;2022-12-07T15:11:27;44.20;;;41.50;;
53267;SDS011;39156;51.176;6.738;2022-12-07T15:13:53;43.30;;;40.42;;
53267;SDS011;39156;51.176;6.738;2022-12-07T15:16:35;42.15;;;39.65;;
53267;SDS011;39156;51.176;6.738;2022-12-07T15:19:05;44.05;;;40.80;;
53267;SDS011;39156;51.176;6.738;2022-12-07T15:21:38;43.00;;;40.45;;
53267;SDS011;39156;51.176;6.738;2022-12-07T15:24:05;43.13;;;40.42;;
53267;SDS011;39156;51.176;6.738;2022-12-07T15:26:31;45.92;;;43.00;;
53267;SDS011;39156;51.176;6.738;2022-12-07T15:28:57;45.25;;;42.47;;
53267;SDS011;39156;51.176;6.738;2022-12-07T15:31:22;44.25;;;41.20;;
53267;SDS011;39156;51.176;6.738;2022-12-07T15:33:48;46.63;;;43.53;;
53267;SDS011;39156;51.176;6.738;2022-12-07T15:36:21;46.33;;;43.13;;
53267;SDS011;39156;51.176;6.738;2022-12-07T15:38:50;45.78;;;42.92;;
53267;SDS011;39156;51.176;6.738;2022-12-07T15:41:16;43.47;;;40.83;;
53267;SDS011;39156;51.176;6.738;2022-12-07T15:43:43;46.40;;;43.67;;
53267;SDS011;39156;51.176;6.738;2022-12-07T15:46:35;42.50;;;39.80;;
53267;SDS011;39156;51.176;6.738;2022-12-07T15:49:06;42.67;;;40.13;;
53267;SDS011;39156;51.176;6.738;2022-12-07T15:51:43;44.63;;;41.72;;
53267;SDS011;39156;51.176;6.738;2022-12-07T15:54:16;42.60;;;39.97;;
53267;SDS011;39156;51.176;6.738;2022-12-07T15:56:46;41.60;;;38.80;;
53267;SDS011;39156;51.176;6.738;2022-12-07T15:59:12;42.97;;;40.15;;
53267;SDS011;39156;51.176;6.738;2022-12-07T16:01:38;43.72;;;40.90;;
53267;SDS011;39156;51.176;6.738;2022-12-07T16:04:04;41.75;;;39.40;;
53267;SDS011;39156;51.176;6.738;2022-12-07T16:06:31;42.40;;;39.88;;
53267;SDS011;39156;51.176;6.738;2022-12-07T16:08:57;42.53;;;39.72;;
53267;SDS011;39156;51.176;6.738;2022-12-07T16:11:23;43.72;;;40.88;;
53267;SDS011;39156;51.176;6.738;2022-12-07T16:13:48;41.78;;;39.10;;
53267;SDS011;39156;51.176;6.738;2022-12-07T16:16:15;43.90;;;41.30;;
53267;SDS011;39156;51.176;6.738;2022-12-07T16:18:43;41.85;;;39.25;;
53267;SDS011;39156;51.176;6.738;2022-12-07T16:21:11;42.65;;;40.03;;
53267;SDS011;39156;51.176;6.738;2022-12-07T16:23:37;44.10;;;41.30;;
53267;SDS011;39156;51.176;6.738;2022-12-07T16:26:03;43.80;;;41.05;;
53267;SDS011;39156;51.176;6.738;2022-12-07T16:28:51;42.60;;;39.70;;
53267;SDS011;39156;51.176;6.738;2022-12-07T16:31:19;43.97;;;41.10;;
53267;SDS011;39156;51.176;6.738;2022-12-07T16:33:47;45.10;;;42.10;;
53267;SDS011;39156;51.176;6.738;2022-12-07T16:36:14;43.95;;;41.45;;
53267;SDS011;39156;51.176;6.738;2022-12-07T16:38:41;44.10;;;41.25;;
53267;SDS011;39156;51.176;6.738;2022-12-07T16:41:08;43.60;;;40.90;;
53267;SDS011;39156;51.176;6.738;2022-12-07T16:43:35;44.50;;;41.50;;
53267;SDS011;39156;51.176;6.738;2022-12-07T16:46:01;40.92;;;38.45;;
53267;SDS011;39156;51.176;6.738;2022-12-07T16:48:28;42.78;;;40.08;;
53267;SDS011;39156;51.176;6.738;2022-12-07T16:50:53;42.97;;;40.38;;
53267;SDS011;39156;51.176;6.738;2022-12-07T16:53:20;43.38;;;40.67;;
53267;SDS011;39156;51.176;6.738;2022-12-07T16:55:47;44.10;;;41.25;;
53267;SDS011;39156;51.176;6.738;2022-12-07T16:58:13;42.20;;;39.38;;
53267;SDS011;39156;51.176;6.738;2022-12-07T17:00:41;43.75;;;40.45;;
53267;SDS011;39156;51.176;6.738;2022-12-07T17:03:08;44.78;;;41.83;;
53267;SDS011;39156;51.176;6.738;2022-12-07T17:05:41;45.87;;;43.07;;
53267;SDS011;39156;51.176;6.738;2022-12-07T17:08:08;43.35;;;40.72;;
53267;SDS011;39156;51.176;6.738;2022-12-07T17:10:36;43.40;;;40.80;;